sensor_id;sensor_type;location;lat;lon;timestamp;P1;durP1;ratioP1;P2;durP2;ratioP2
17228;SDS011;8731;50.364;8.958;2024-02-21T00:03:25;10.90;;;3.97;;
17228;SDS011;8731;50.364;8.958;2024-02-21T00:07:48;14.53;;;4.07;;
17228;SDS011;8731;50.364;8.958;2024-02-21T00:12:11;14.40;;;4.40;;
17228;SDS011;8731;50.364;8.958;2024-02-21T00:16:35;11.43;;;4.50;;
17228;SDS011;8731;50.364;8.958;2024-02-21T00:20:57;13.80;;;4.03;;
17228;SDS011;8731;50.364;8.958;2024-02-21T00:25:21;13.63;;;5.00;;
17228;SDS011;8731;50.364;8.958;2024-02-21T00:29:45;16.10;;;4.93;;
17228;SDS011;8731;50.364;8.958;2024-02-21T00:34:08;14.00;;;4.47;;
17228;SDS011;8731;50.364;8.958;2024-02-21T00:38:32;12.07;;;4.93;;
17228;SDS011;8731;50.364;8.958;2024-02-21T00:42:55;12.23;;;4.80;;
17228;SDS011;8731;50.364;8.958;2024-02-21T00:47:19;15.80;;;4.97;;
17228;SDS011;8731;50.364;8.958;2024-02-21T00:51:41;11.13;;;4.37;;
17228;SDS011;8731;50.364;8.958;2024-02-21T00:56:04;17.00;;;4.67;;
17228;SDS011;8731;50.364;8.958;2024-02-21T01:00:28;14.13;;;4.13;;
17228;SDS011;8731;50.364;8.958;2024-02-21T01:04:53;17.47;;;4.77;;
17228;SDS011;8731;50.364;8.958;2024-02-21T01:09:15;15.93;;;4.73;;
17228;SDS011;8731;50.364;8.958;2024-02-21T01:13:38;12.23;;;4.87;;
17228;SDS011;8731;50.364;8.958;2024-02-21T01:18:02;12.30;;;4.87;;
17228;SDS011;8731;50.364;8.958;2024-02-21T01:22:26;13.07;;;4.63;;
17228;SDS011;8731;50.364;8.958;2024-02-21T01:26:50;18.37;;;5.20;;
17228;SDS011;8731;50.364;8.958;2024-02-21T01:31:12;13.13;;;4.80;;
17228;SDS011;8731;50.364;8.958;2024-02-21T01:35:35;14.20;;;5.27;;
17228;SDS011;8731;50.364;8.958;2024-02-21T01:39:59;11.00;;;4.57;;
17228;SDS011;8731;50.364;8.958;2024-02-21T01:44:23;16.00;;;4.93;;
17228;SDS011;8731;50.364;8.958;2024-02-21T01:48:45;15.70;;;5.23;;
17228;SDS011;8731;50.364;8.958;2024-02-21T01:53:08;14.67;;;4.83;;
17228;SDS011;8731;50.364;8.958;2024-02-21T01:57:32;11.63;;;5.10;;
17228;SDS011;8731;50.364;8.958;2024-02-21T02:01:55;12.73;;;4.70;;
17228;SDS011;8731;50.364;8.958;2024-02-21T02:06:18;16.53;;;4.97;;
17228;SDS011;8731;50.364;8.958;2024-02-21T02:10:41;14.67;;;4.87;;
17228;SDS011;8731;50.364;8.958;2024-02-21T02:15:06;15.40;;;5.27;;
17228;SDS011;8731;50.364;8.958;2024-02-21T02:19:30;15.07;;;4.97;;
17228;SDS011;8731;50.364;8.958;2024-02-21T02:23:56;16.30;;;6.03;;
17228;SDS011;8731;50.364;8.958;2024-02-21T02:28:21;9.73;;;5.00;;
17228;SDS011;8731;50.364;8.958;2024-02-21T02:32:44;16.10;;;5.40;;
17228;SDS011;8731;50.364;8.958;2024-02-21T02:37:07;17.07;;;5.40;;
17228;SDS011;8731;50.364;8.958;2024-02-21T02:41:31;12.23;;;5.80;;
17228;SDS011;8731;50.364;8.958;2024-02-21T02:45:55;16.20;;;6.17;;
17228;SDS011;8731;50.364;8.958;2024-02-21T02:50:18;13.93;;;6.87;;
17228;SDS011;8731;50.364;8.958;2024-02-21T02:54:41;17.73;;;8.43;;
17228;SDS011;8731;50.364;8.958;2024-02-21T02:59:04;14.53;;;6.87;;
17228;SDS011;8731;50.364;8.958;2024-02-21T03:03:27;15.73;;;6.93;;
17228;SDS011;8731;50.364;8.958;2024-02-21T03:07:49;18.70;;;7.80;;
17228;SDS011;8731;50.364;8.958;2024-02-21T03:12:11;15.00;;;6.40;;
17228;SDS011;8731;50.364;8.958;2024-02-21T03:16:40;17.47;;;7.07;;
17228;SDS011;8731;50.364;8.958;2024-02-21T03:21:03;15.30;;;7.70;;
17228;SDS011;8731;50.364;8.958;2024-02-21T03:25:25;20.37;;;10.50;;
17228;SDS011;8731;50.364;8.958;2024-02-21T03:29:48;22.07;;;10.00;;
17228;SDS011;8731;50.364;8.958;2024-02-21T03:34:12;14.40;;;6.47;;
17228;SDS011;8731;50.364;8.958;2024-02-21T03:38:34;14.17;;;6.70;;
17228;SDS011;8731;50.364;8.958;2024-02-21T03:42:57;17.90;;;7.33;;
17228;SDS011;8731;50.364;8.958;2024-02-21T03:47:19;15.00;;;6.70;;
17228;SDS011;8731;50.364;8.958;2024-02-21T03:51:43;17.33;;;6.37;;
17228;SDS011;8731;50.364;8.958;2024-02-21T03:56:05;12.30;;;5.93;;
17228;SDS011;8731;50.364;8.958;2024-02-21T04:00:28;14.00;;;6.67;;
17228;SDS011;8731;50.364;8.958;2024-02-21T04:04:50;14.30;;;6.80;;
17228;SDS011;8731;50.364;8.958;2024-02-21T04:09:14;15.00;;;6.87;;
17228;SDS011;8731;50.364;8.958;2024-02-21T04:13:37;18.00;;;7.67;;
17228;SDS011;8731;50.364;8.958;2024-02-21T04:17:59;14.20;;;6.67;;
17228;SDS011;8731;50.364;8.958;2024-02-21T04:22:23;23.70;;;8.60;;
17228;SDS011;8731;50.364;8.958;2024-02-21T04:26:47;15.87;;;7.03;;
17228;SDS011;8731;50.364;8.958;2024-02-21T04:31:10;15.33;;;6.70;;
17228;SDS011;8731;50.364;8.958;2024-02-21T04:35:32;12.73;;;6.80;;
17228;SDS011;8731;50.364;8.958;2024-02-21T04:39:57;11.90;;;7.27;;
17228;SDS011;8731;50.364;8.958;2024-02-21T04:44:21;16.57;;;7.80;;
17228;SDS011;8731;50.364;8.958;2024-02-21T04:48:43;18.23;;;7.90;;
17228;SDS011;8731;50.364;8.958;2024-02-21T04:53:07;17.97;;;8.00;;
17228;SDS011;8731;50.364;8.958;2024-02-21T04:57:29;13.70;;;6.93;;
17228;SDS011;8731;50.364;8.958;2024-02-21T05:01:54;14.63;;;7.37;;
17228;SDS011;8731;50.364;8.958;2024-02-21T05:06:20;18.67;;;7.63;;
17228;SDS011;8731;50.364;8.958;2024-02-21T05:10:42;16.17;;;8.20;;
17228;SDS011;8731;50.364;8.958;2024-02-21T05:15:05;16.47;;;7.57;;
17228;SDS011;8731;50.364;8.958;2024-02-21T05:19:30;13.77;;;7.60;;
17228;SDS011;8731;50.364;8.958;2024-02-21T05:23:53;16.43;;;7.97;;
17228;SDS011;8731;50.364;8.958;2024-02-21T05:28:16;14.67;;;8.13;;
17228;SDS011;8731;50.364;8.958;2024-02-21T05:32:38;17.30;;;8.30;;
17228;SDS011;8731;50.364;8.958;2024-02-21T05:37:02;14.17;;;8.03;;
17228;SDS011;8731;50.364;8.958;2024-02-21T05:41:24;20.20;;;9.00;;
17228;SDS011;8731;50.364;8.958;2024-02-21T05:45:47;14.67;;;7.87;;
17228;SDS011;8731;50.364;8.958;2024-02-21T05:50:10;19.83;;;8.13;;
17228;SDS011;8731;50.364;8.958;2024-02-21T05:54:34;18.60;;;7.90;;
17228;SDS011;8731;50.364;8.958;2024-02-21T05:59:01;18.23;;;7.60;;
17228;SDS011;8731;50.364;8.958;2024-02-21T06:03:23;16.03;;;7.47;;
17228;SDS011;8731;50.364;8.958;2024-02-21T06:07:46;17.57;;;7.87;;
17228;SDS011;8731;50.364;8.958;2024-02-21T06:12:10;15.20;;;7.33;;
17228;SDS011;8731;50.364;8.958;2024-02-21T06:16:32;18.67;;;7.67;;
17228;SDS011;8731;50.364;8.958;2024-02-21T06:20:55;21.17;;;8.30;;
17228;SDS011;8731;50.364;8.958;2024-02-21T06:25:18;18.00;;;6.93;;
17228;SDS011;8731;50.364;8.958;2024-02-21T06:29:42;14.57;;;9.10;;
17228;SDS011;8731;50.364;8.958;2024-02-21T06:34:04;13.10;;;7.47;;
17228;SDS011;8731;50.364;8.958;2024-02-21T06:38:27;19.43;;;7.47;;
17228;SDS011;8731;50.364;8.958;2024-02-21T06:42:49;16.97;;;10.00;;
17228;SDS011;8731;50.364;8.958;2024-02-21T06:47:13;17.67;;;10.10;;
17228;SDS011;8731;50.364;8.958;2024-02-21T06:51:35;17.50;;;9.77;;
17228;SDS011;8731;50.364;8.958;2024-02-21T06:55:58;14.23;;;8.07;;
17228;SDS011;8731;50.364;8.958;2024-02-21T07:00:20;16.73;;;7.43;;
17228;SDS011;8731;50.364;8.958;2024-02-21T07:04:45;14.10;;;7.90;;
17228;SDS011;8731;50.364;8.958;2024-02-21T07:09:07;11.33;;;7.07;;
17228;SDS011;8731;50.364;8.958;2024-02-21T07:13:30;14.03;;;7.33;;
17228;SDS011;8731;50.364;8.958;2024-02-21T07:17:53;16.03;;;7.50;;
17228;SDS011;8731;50.364;8.958;2024-02-21T07:22:17;15.93;;;7.57;;
17228;SDS011;8731;50.364;8.958;2024-02-21T07:26:40;12.20;;;5.90;;
17228;SDS011;8731;50.364;8.958;2024-02-21T07:31:04;20.27;;;6.83;;
17228;SDS011;8731;50.364;8.958;2024-02-21T07:35:26;12.17;;;6.90;;
17228;SDS011;8731;50.364;8.958;2024-02-21T07:39:50;13.17;;;7.00;;
17228;SDS011;8731;50.364;8.958;2024-02-21T07:44:12;15.60;;;7.07;;
17228;SDS011;8731;50.364;8.958;2024-02-21T07:48:35;12.77;;;6.30;;
17228;SDS011;8731;50.364;8.958;2024-02-21T07:52:57;10.73;;;6.13;;
17228;SDS011;8731;50.364;8.958;2024-02-21T07:57:22;14.80;;;7.07;;
17228;SDS011;8731;50.364;8.958;2024-02-21T08:01:45;15.63;;;6.97;;
17228;SDS011;8731;50.364;8.958;2024-02-21T08:06:11;16.27;;;7.33;;
17228;SDS011;8731;50.364;8.958;2024-02-21T08:10:34;15.07;;;7.07;;
17228;SDS011;8731;50.364;8.958;2024-02-21T08:14:58;12.00;;;6.20;;
17228;SDS011;8731;50.364;8.958;2024-02-21T08:19:21;17.00;;;8.43;;
17228;SDS011;8731;50.364;8.958;2024-02-21T08:23:43;11.93;;;7.27;;
17228;SDS011;8731;50.364;8.958;2024-02-21T08:28:06;11.80;;;7.00;;
17228;SDS011;8731;50.364;8.958;2024-02-21T08:32:30;13.70;;;7.57;;
17228;SDS011;8731;50.364;8.958;2024-02-21T08:36:52;12.53;;;7.67;;
17228;SDS011;8731;50.364;8.958;2024-02-21T08:41:15;16.47;;;7.77;;
17228;SDS011;8731;50.364;8.958;2024-02-21T08:45:37;15.83;;;7.87;;
17228;SDS011;8731;50.364;8.958;2024-02-21T08:50:01;14.20;;;8.47;;
17228;SDS011;8731;50.364;8.958;2024-02-21T08:54:27;15.40;;;7.87;;
17228;SDS011;8731;50.364;8.958;2024-02-21T08:58:49;12.90;;;8.03;;
17228;SDS011;8731;50.364;8.958;2024-02-21T09:03:12;12.13;;;8.17;;
17228;SDS011;8731;50.364;8.958;2024-02-21T09:07:36;14.83;;;9.30;;
17228;SDS011;8731;50.364;8.958;2024-02-21T09:11:59;17.50;;;9.17;;
17228;SDS011;8731;50.364;8.958;2024-02-21T09:16:25;15.37;;;9.10;;
17228;SDS011;8731;50.364;8.958;2024-02-21T09:20:48;14.30;;;8.80;;
17228;SDS011;8731;50.364;8.958;2024-02-21T09:25:13;20.50;;;9.63;;
17228;SDS011;8731;50.364;8.958;2024-02-21T09:29:36;15.20;;;8.77;;
17228;SDS011;8731;50.364;8.958;2024-02-21T09:33:59;13.63;;;8.60;;
17228;SDS011;8731;50.364;8.958;2024-02-21T09:38:22;13.73;;;7.60;;
17228;SDS011;8731;50.364;8.958;2024-02-21T09:42:47;13.67;;;6.97;;
17228;SDS011;8731;50.364;8.958;2024-02-21T09:47:12;10.67;;;6.50;;
17228;SDS011;8731;50.364;8.958;2024-02-21T09:51:43;12.57;;;6.40;;
17228;SDS011;8731;50.364;8.958;2024-02-21T09:56:08;12.53;;;6.50;;
17228;SDS011;8731;50.364;8.958;2024-02-21T10:00:34;13.40;;;7.13;;
17228;SDS011;8731;50.364;8.958;2024-02-21T10:04:57;11.70;;;6.53;;
17228;SDS011;8731;50.364;8.958;2024-02-21T10:09:21;12.07;;;7.43;;
17228;SDS011;8731;50.364;8.958;2024-02-21T10:13:44;14.67;;;7.20;;
17228;SDS011;8731;50.364;8.958;2024-02-21T10:18:08;14.63;;;8.23;;
17228;SDS011;8731;50.364;8.958;2024-02-21T10:22:30;14.10;;;7.93;;
17228;SDS011;8731;50.364;8.958;2024-02-21T10:26:59;12.17;;;8.07;;
17228;SDS011;8731;50.364;8.958;2024-02-21T10:31:26;12.17;;;6.53;;
17228;SDS011;8731;50.364;8.958;2024-02-21T10:35:51;10.67;;;6.17;;
17228;SDS011;8731;50.364;8.958;2024-02-21T10:40:13;11.17;;;6.27;;
17228;SDS011;8731;50.364;8.958;2024-02-21T10:44:38;10.63;;;5.60;;
17228;SDS011;8731;50.364;8.958;2024-02-21T10:49:04;11.83;;;7.13;;
17228;SDS011;8731;50.364;8.958;2024-02-21T10:53:37;10.87;;;5.13;;
17228;SDS011;8731;50.364;8.958;2024-02-21T10:58:08;14.47;;;5.97;;
17228;SDS011;8731;50.364;8.958;2024-02-21T11:02:33;11.63;;;4.70;;
17228;SDS011;8731;50.364;8.958;2024-02-21T11:06:56;9.53;;;5.43;;
17228;SDS011;8731;50.364;8.958;2024-02-21T11:11:23;9.47;;;4.80;;
17228;SDS011;8731;50.364;8.958;2024-02-21T11:15:46;10.07;;;4.37;;
17228;SDS011;8731;50.364;8.958;2024-02-21T11:20:12;7.87;;;4.27;;
17228;SDS011;8731;50.364;8.958;2024-02-21T11:24:35;11.00;;;3.70;;
17228;SDS011;8731;50.364;8.958;2024-02-21T11:29:02;10.40;;;4.50;;
17228;SDS011;8731;50.364;8.958;2024-02-21T11:33:25;10.73;;;4.13;;
17228;SDS011;8731;50.364;8.958;2024-02-21T11:37:50;6.53;;;3.70;;
17228;SDS011;8731;50.364;8.958;2024-02-21T11:42:13;8.00;;;3.80;;
17228;SDS011;8731;50.364;8.958;2024-02-21T11:46:37;12.57;;;4.23;;
17228;SDS011;8731;50.364;8.958;2024-02-21T11:51:00;8.53;;;3.63;;
17228;SDS011;8731;50.364;8.958;2024-02-21T11:55:25;9.20;;;4.10;;
17228;SDS011;8731;50.364;8.958;2024-02-21T11:59:48;9.73;;;3.97;;
17228;SDS011;8731;50.364;8.958;2024-02-21T12:04:16;10.27;;;4.13;;
17228;SDS011;8731;50.364;8.958;2024-02-21T12:08:42;12.43;;;3.70;;
17228;SDS011;8731;50.364;8.958;2024-02-21T12:13:05;10.70;;;3.47;;
17228;SDS011;8731;50.364;8.958;2024-02-21T12:17:29;11.10;;;4.10;;
17228;SDS011;8731;50.364;8.958;2024-02-21T12:21:53;12.17;;;4.20;;
17228;SDS011;8731;50.364;8.958;2024-02-21T12:26:18;8.40;;;3.27;;
17228;SDS011;8731;50.364;8.958;2024-02-21T12:30:40;7.80;;;3.80;;
17228;SDS011;8731;50.364;8.958;2024-02-21T12:35:03;9.70;;;3.80;;
17228;SDS011;8731;50.364;8.958;2024-02-21T12:39:28;8.47;;;4.00;;
17228;SDS011;8731;50.364;8.958;2024-02-21T12:43:52;12.83;;;4.03;;
17228;SDS011;8731;50.364;8.958;2024-02-21T12:48:15;10.10;;;4.27;;
17228;SDS011;8731;50.364;8.958;2024-02-21T12:52:37;10.73;;;3.70;;
17228;SDS011;8731;50.364;8.958;2024-02-21T12:57:01;13.00;;;4.50;;
17228;SDS011;8731;50.364;8.958;2024-02-21T13:01:24;12.40;;;4.70;;
17228;SDS011;8731;50.364;8.958;2024-02-21T13:05:46;11.07;;;4.33;;
17228;SDS011;8731;50.364;8.958;2024-02-21T13:10:09;12.33;;;4.00;;
17228;SDS011;8731;50.364;8.958;2024-02-21T13:14:33;10.70;;;3.77;;
17228;SDS011;8731;50.364;8.958;2024-02-21T13:18:57;13.60;;;3.70;;
17228;SDS011;8731;50.364;8.958;2024-02-21T13:23:20;11.47;;;4.23;;
17228;SDS011;8731;50.364;8.958;2024-02-21T13:27:43;10.97;;;3.63;;
17228;SDS011;8731;50.364;8.958;2024-02-21T13:32:07;10.30;;;3.70;;
17228;SDS011;8731;50.364;8.958;2024-02-21T13:36:29;10.07;;;3.90;;
17228;SDS011;8731;50.364;8.958;2024-02-21T13:40:52;9.37;;;3.70;;
17228;SDS011;8731;50.364;8.958;2024-02-21T13:45:14;11.23;;;3.43;;
17228;SDS011;8731;50.364;8.958;2024-02-21T13:49:38;9.03;;;3.93;;
17228;SDS011;8731;50.364;8.958;2024-02-21T13:54:00;9.53;;;3.73;;
17228;SDS011;8731;50.364;8.958;2024-02-21T13:58:24;12.57;;;4.00;;
17228;SDS011;8731;50.364;8.958;2024-02-21T14:02:48;8.70;;;3.53;;
17228;SDS011;8731;50.364;8.958;2024-02-21T14:07:12;9.53;;;3.20;;
17228;SDS011;8731;50.364;8.958;2024-02-21T14:11:35;10.57;;;3.33;;
17228;SDS011;8731;50.364;8.958;2024-02-21T14:15:58;12.10;;;3.80;;
17228;SDS011;8731;50.364;8.958;2024-02-21T14:20:20;10.93;;;3.57;;
17228;SDS011;8731;50.364;8.958;2024-02-21T14:24:44;6.83;;;3.23;;
17228;SDS011;8731;50.364;8.958;2024-02-21T14:29:07;10.87;;;3.37;;
17228;SDS011;8731;50.364;8.958;2024-02-21T14:33:29;11.47;;;3.57;;
17228;SDS011;8731;50.364;8.958;2024-02-21T14:37:52;8.27;;;3.23;;
17228;SDS011;8731;50.364;8.958;2024-02-21T14:42:18;7.20;;;3.33;;
17228;SDS011;8731;50.364;8.958;2024-02-21T14:46:41;8.00;;;3.27;;
17228;SDS011;8731;50.364;8.958;2024-02-21T14:51:03;8.50;;;2.70;;
17228;SDS011;8731;50.364;8.958;2024-02-21T14:55:26;6.20;;;3.10;;
17228;SDS011;8731;50.364;8.958;2024-02-21T14:59:50;7.50;;;3.73;;
17228;SDS011;8731;50.364;8.958;2024-02-21T15:04:16;9.83;;;2.97;;
17228;SDS011;8731;50.364;8.958;2024-02-21T15:08:38;10.73;;;3.13;;
17228;SDS011;8731;50.364;8.958;2024-02-21T15:13:00;7.23;;;3.10;;
17228;SDS011;8731;50.364;8.958;2024-02-21T15:17:25;7.17;;;2.90;;
17228;SDS011;8731;50.364;8.958;2024-02-21T15:21:47;8.33;;;2.90;;
17228;SDS011;8731;50.364;8.958;2024-02-21T15:26:09;9.83;;;2.83;;
17228;SDS011;8731;50.364;8.958;2024-02-21T15:30:33;9.47;;;2.87;;
17228;SDS011;8731;50.364;8.958;2024-02-21T15:34:58;6.87;;;2.30;;
17228;SDS011;8731;50.364;8.958;2024-02-21T15:39:20;8.77;;;3.10;;
17228;SDS011;8731;50.364;8.958;2024-02-21T15:43:43;6.93;;;2.57;;
17228;SDS011;8731;50.364;8.958;2024-02-21T15:48:05;10.80;;;3.97;;
17228;SDS011;8731;50.364;8.958;2024-02-21T15:52:32;6.70;;;2.73;;
17228;SDS011;8731;50.364;8.958;2024-02-21T15:56:55;9.10;;;2.43;;
17228;SDS011;8731;50.364;8.958;2024-02-21T16:01:19;6.37;;;2.57;;
17228;SDS011;8731;50.364;8.958;2024-02-21T16:05:43;7.13;;;2.73;;
17228;SDS011;8731;50.364;8.958;2024-02-21T16:10:08;9.60;;;3.30;;
17228;SDS011;8731;50.364;8.958;2024-02-21T16:14:31;8.77;;;2.73;;
17228;SDS011;8731;50.364;8.958;2024-02-21T16:18:53;7.73;;;2.73;;
17228;SDS011;8731;50.364;8.958;2024-02-21T16:23:17;10.30;;;2.93;;
17228;SDS011;8731;50.364;8.958;2024-02-21T16:27:43;5.93;;;2.07;;
17228;SDS011;8731;50.364;8.958;2024-02-21T16:32:05;6.00;;;2.33;;
17228;SDS011;8731;50.364;8.958;2024-02-21T16:36:30;7.57;;;2.67;;
17228;SDS011;8731;50.364;8.958;2024-02-21T16:40:53;10.53;;;3.20;;
17228;SDS011;8731;50.364;8.958;2024-02-21T16:45:16;8.60;;;3.20;;
17228;SDS011;8731;50.364;8.958;2024-02-21T16:49:40;8.17;;;2.93;;
17228;SDS011;8731;50.364;8.958;2024-02-21T16:54:03;8.63;;;2.93;;
17228;SDS011;8731;50.364;8.958;2024-02-21T16:58:28;7.70;;;2.70;;
17228;SDS011;8731;50.364;8.958;2024-02-21T17:02:58;9.23;;;3.07;;
17228;SDS011;8731;50.364;8.958;2024-02-21T17:07:20;8.17;;;2.97;;
17228;SDS011;8731;50.364;8.958;2024-02-21T17:11:43;6.33;;;2.63;;
17228;SDS011;8731;50.364;8.958;2024-02-21T17:16:06;9.40;;;2.90;;
17228;SDS011;8731;50.364;8.958;2024-02-21T17:20:30;6.53;;;2.37;;
17228;SDS011;8731;50.364;8.958;2024-02-21T17:24:56;8.40;;;2.53;;
17228;SDS011;8731;50.364;8.958;2024-02-21T17:29:18;8.67;;;2.90;;
17228;SDS011;8731;50.364;8.958;2024-02-21T17:33:41;9.70;;;3.10;;
17228;SDS011;8731;50.364;8.958;2024-02-21T17:38:05;9.13;;;2.70;;
17228;SDS011;8731;50.364;8.958;2024-02-21T17:42:28;7.57;;;2.37;;
17228;SDS011;8731;50.364;8.958;2024-02-21T17:46:51;8.03;;;2.33;;
17228;SDS011;8731;50.364;8.958;2024-02-21T17:51:16;10.70;;;2.60;;
17228;SDS011;8731;50.364;8.958;2024-02-21T17:55:40;5.33;;;2.30;;
17228;SDS011;8731;50.364;8.958;2024-02-21T18:00:02;6.17;;;2.53;;
17228;SDS011;8731;50.364;8.958;2024-02-21T18:04:34;7.23;;;2.50;;
17228;SDS011;8731;50.364;8.958;2024-02-21T18:08:57;10.00;;;2.63;;
17228;SDS011;8731;50.364;8.958;2024-02-21T18:13:20;7.00;;;2.50;;
17228;SDS011;8731;50.364;8.958;2024-02-21T18:17:43;8.37;;;2.43;;
17228;SDS011;8731;50.364;8.958;2024-02-21T18:22:05;7.47;;;2.73;;
17228;SDS011;8731;50.364;8.958;2024-02-21T18:26:28;8.30;;;2.77;;
17228;SDS011;8731;50.364;8.958;2024-02-21T18:31:00;7.63;;;2.90;;
17228;SDS011;8731;50.364;8.958;2024-02-21T18:35:26;10.47;;;2.77;;
17228;SDS011;8731;50.364;8.958;2024-02-21T18:39:49;7.43;;;2.50;;
17228;SDS011;8731;50.364;8.958;2024-02-21T18:44:11;7.17;;;2.80;;
17228;SDS011;8731;50.364;8.958;2024-02-21T18:48:35;12.57;;;2.93;;
17228;SDS011;8731;50.364;8.958;2024-02-21T18:53:06;7.77;;;3.13;;
17228;SDS011;8731;50.364;8.958;2024-02-21T18:57:29;7.03;;;3.30;;
17228;SDS011;8731;50.364;8.958;2024-02-21T19:01:56;4.50;;;2.13;;
17228;SDS011;8731;50.364;8.958;2024-02-21T19:06:20;5.67;;;2.97;;
17228;SDS011;8731;50.364;8.958;2024-02-21T19:10:43;7.50;;;2.80;;
17228;SDS011;8731;50.364;8.958;2024-02-21T19:15:06;7.43;;;2.57;;
17228;SDS011;8731;50.364;8.958;2024-02-21T19:19:29;6.43;;;2.10;;
17228;SDS011;8731;50.364;8.958;2024-02-21T19:23:53;7.37;;;2.20;;
17228;SDS011;8731;50.364;8.958;2024-02-21T19:28:16;7.30;;;2.60;;
17228;SDS011;8731;50.364;8.958;2024-02-21T19:32:40;7.37;;;2.50;;
17228;SDS011;8731;50.364;8.958;2024-02-21T19:37:03;5.17;;;2.57;;
17228;SDS011;8731;50.364;8.958;2024-02-21T19:41:30;8.50;;;3.73;;
17228;SDS011;8731;50.364;8.958;2024-02-21T19:45:53;5.80;;;2.67;;
17228;SDS011;8731;50.364;8.958;2024-02-21T19:50:15;10.83;;;4.17;;
17228;SDS011;8731;50.364;8.958;2024-02-21T19:54:41;8.73;;;3.60;;
17228;SDS011;8731;50.364;8.958;2024-02-21T19:59:05;6.50;;;3.47;;
17228;SDS011;8731;50.364;8.958;2024-02-21T20:03:28;6.10;;;2.80;;
17228;SDS011;8731;50.364;8.958;2024-02-21T20:07:50;5.20;;;2.50;;
17228;SDS011;8731;50.364;8.958;2024-02-21T20:12:13;5.33;;;2.43;;
17228;SDS011;8731;50.364;8.958;2024-02-21T20:16:41;2.73;;;1.50;;
17228;SDS011;8731;50.364;8.958;2024-02-21T20:21:04;3.77;;;1.57;;
17228;SDS011;8731;50.364;8.958;2024-02-21T20:25:27;6.00;;;2.37;;
17228;SDS011;8731;50.364;8.958;2024-02-21T20:29:50;2.73;;;1.90;;
17228;SDS011;8731;50.364;8.958;2024-02-21T20:34:14;5.37;;;2.30;;
17228;SDS011;8731;50.364;8.958;2024-02-21T20:38:36;4.30;;;1.70;;
17228;SDS011;8731;50.364;8.958;2024-02-21T20:42:59;5.17;;;2.07;;
17228;SDS011;8731;50.364;8.958;2024-02-21T20:47:23;5.43;;;2.70;;
17228;SDS011;8731;50.364;8.958;2024-02-21T20:51:47;6.40;;;2.10;;
17228;SDS011;8731;50.364;8.958;2024-02-21T20:56:10;4.40;;;2.17;;
17228;SDS011;8731;50.364;8.958;2024-02-21T21:00:33;6.57;;;2.27;;
17228;SDS011;8731;50.364;8.958;2024-02-21T21:04:55;5.77;;;1.90;;
17228;SDS011;8731;50.364;8.958;2024-02-21T21:09:19;4.00;;;1.80;;
17228;SDS011;8731;50.364;8.958;2024-02-21T21:13:43;4.47;;;1.90;;
17228;SDS011;8731;50.364;8.958;2024-02-21T21:18:05;4.33;;;1.80;;
17228;SDS011;8731;50.364;8.958;2024-02-21T21:22:29;5.37;;;1.80;;
17228;SDS011;8731;50.364;8.958;2024-02-21T21:26:53;3.87;;;2.10;;
17228;SDS011;8731;50.364;8.958;2024-02-21T21:31:15;5.43;;;2.10;;
17228;SDS011;8731;50.364;8.958;2024-02-21T21:35:39;5.47;;;2.23;;
17228;SDS011;8731;50.364;8.958;2024-02-21T21:40:02;7.13;;;2.40;;
17228;SDS011;8731;50.364;8.958;2024-02-21T21:44:28;4.43;;;2.10;;
17228;SDS011;8731;50.364;8.958;2024-02-21T21:48:51;5.90;;;2.10;;
17228;SDS011;8731;50.364;8.958;2024-02-21T21:53:14;5.50;;;2.20;;
17228;SDS011;8731;50.364;8.958;2024-02-21T21:57:36;5.83;;;2.30;;
17228;SDS011;8731;50.364;8.958;2024-02-21T22:02:00;4.37;;;2.00;;
17228;SDS011;8731;50.364;8.958;2024-02-21T22:06:24;6.30;;;2.00;;
17228;SDS011;8731;50.364;8.958;2024-02-21T22:10:47;4.67;;;2.23;;
17228;SDS011;8731;50.364;8.958;2024-02-21T22:15:11;4.50;;;2.03;;
17228;SDS011;8731;50.364;8.958;2024-02-21T22:19:36;4.20;;;2.27;;
17228;SDS011;8731;50.364;8.958;2024-02-21T22:23:58;3.93;;;2.10;;
17228;SDS011;8731;50.364;8.958;2024-02-21T22:28:21;3.37;;;2.00;;
17228;SDS011;8731;50.364;8.958;2024-02-21T22:32:45;2.60;;;2.10;;
17228;SDS011;8731;50.364;8.958;2024-02-21T22:37:09;4.00;;;2.43;;
17228;SDS011;8731;50.364;8.958;2024-02-21T22:41:31;5.97;;;2.50;;
17228;SDS011;8731;50.364;8.958;2024-02-21T22:45:54;4.47;;;2.73;;
17228;SDS011;8731;50.364;8.958;2024-02-21T22:50:17;4.40;;;2.57;;
17228;SDS011;8731;50.364;8.958;2024-02-21T22:54:40;6.20;;;2.63;;
17228;SDS011;8731;50.364;8.958;2024-02-21T22:59:03;5.13;;;2.67;;
17228;SDS011;8731;50.364;8.958;2024-02-21T23:03:25;6.77;;;2.63;;
17228;SDS011;8731;50.364;8.958;2024-02-21T23:07:48;6.37;;;3.07;;
17228;SDS011;8731;50.364;8.958;2024-02-21T23:12:14;6.23;;;3.00;;
17228;SDS011;8731;50.364;8.958;2024-02-21T23:16:38;7.13;;;3.20;;
17228;SDS011;8731;50.364;8.958;2024-02-21T23:21:00;8.40;;;3.23;;
17228;SDS011;8731;50.364;8.958;2024-02-21T23:25:23;5.90;;;3.43;;
17228;SDS011;8731;50.364;8.958;2024-02-21T23:29:47;3.83;;;3.03;;
17228;SDS011;8731;50.364;8.958;2024-02-21T23:34:09;7.20;;;3.20;;
17228;SDS011;8731;50.364;8.958;2024-02-21T23:38:32;3.47;;;2.67;;
17228;SDS011;8731;50.364;8.958;2024-02-21T23:42:54;6.33;;;3.20;;
17228;SDS011;8731;50.364;8.958;2024-02-21T23:47:22;5.17;;;2.80;;
17228;SDS011;8731;50.364;8.958;2024-02-21T23:51:48;3.20;;;2.83;;
17228;SDS011;8731;50.364;8.958;2024-02-21T23:56:12;6.50;;;2.90;;
